sensor_id;sensor_type;location;lat;lon;timestamp;P1;durP1;ratioP1;P2;durP2;ratioP2
48941;SDS011;35340;52.378;4.648;2023-01-15T00:00:56;11.55;;;5.07;;
48941;SDS011;35340;52.378;4.648;2023-01-15T00:03:22;10.65;;;5.30;;
48941;SDS011;35340;52.378;4.648;2023-01-15T00:05:47;13.02;;;5.50;;
48941;SDS011;35340;52.378;4.648;2023-01-15T00:08:13;15.73;;;5.63;;
48941;SDS011;35340;52.378;4.648;2023-01-15T00:10:38;10.73;;;5.05;;
48941;SDS011;35340;52.378;4.648;2023-01-15T00:13:03;11.73;;;4.65;;
48941;SDS011;35340;52.378;4.648;2023-01-15T00:15:29;10.68;;;5.00;;
48941;SDS011;35340;52.378;4.648;2023-01-15T00:17:55;12.50;;;5.20;;
48941;SDS011;35340;52.378;4.648;2023-01-15T00:20:20;11.07;;;5.00;;
48941;SDS011;35340;52.378;4.648;2023-01-15T00:22:46;9.48;;;4.70;;
48941;SDS011;35340;52.378;4.648;2023-01-15T00:25:11;9.95;;;4.63;;
48941;SDS011;35340;52.378;4.648;2023-01-15T00:27:55;10.40;;;4.80;;
48941;SDS011;35340;52.378;4.648;2023-01-15T00:30:21;11.10;;;4.50;;
48941;SDS011;35340;52.378;4.648;2023-01-15T00:32:48;9.23;;;4.35;;
48941;SDS011;35340;52.378;4.648;2023-01-15T00:35:18;13.35;;;5.00;;
48941;SDS011;35340;52.378;4.648;2023-01-15T00:37:45;10.02;;;4.18;;
48941;SDS011;35340;52.378;4.648;2023-01-15T00:40:12;9.73;;;4.60;;
48941;SDS011;35340;52.378;4.648;2023-01-15T00:42:39;10.57;;;4.57;;
48941;SDS011;35340;52.378;4.648;2023-01-15T00:45:05;10.27;;;4.35;;
48941;SDS011;35340;52.378;4.648;2023-01-15T00:47:35;10.68;;;4.50;;
48941;SDS011;35340;52.378;4.648;2023-01-15T00:50:05;12.88;;;4.43;;
48941;SDS011;35340;52.378;4.648;2023-01-15T00:52:33;8.95;;;3.72;;
48941;SDS011;35340;52.378;4.648;2023-01-15T00:54:58;10.05;;;4.60;;
48941;SDS011;35340;52.378;4.648;2023-01-15T00:57:24;9.23;;;4.28;;
48941;SDS011;35340;52.378;4.648;2023-01-15T00:59:49;10.30;;;4.32;;
48941;SDS011;35340;52.378;4.648;2023-01-15T01:02:14;8.13;;;3.65;;
48941;SDS011;35340;52.378;4.648;2023-01-15T01:04:40;11.38;;;4.28;;
48941;SDS011;35340;52.378;4.648;2023-01-15T01:07:05;10.75;;;4.20;;
48941;SDS011;35340;52.378;4.648;2023-01-15T01:09:31;8.25;;;3.80;;
48941;SDS011;35340;52.378;4.648;2023-01-15T01:11:56;7.68;;;3.78;;
48941;SDS011;35340;52.378;4.648;2023-01-15T01:14:22;10.15;;;4.25;;
48941;SDS011;35340;52.378;4.648;2023-01-15T01:16:47;7.07;;;3.33;;
48941;SDS011;35340;52.378;4.648;2023-01-15T01:19:15;8.00;;;4.10;;
48941;SDS011;35340;52.378;4.648;2023-01-15T01:21:42;8.40;;;3.88;;
48941;SDS011;35340;52.378;4.648;2023-01-15T01:24:12;7.75;;;3.42;;
48941;SDS011;35340;52.378;4.648;2023-01-15T01:26:43;8.77;;;3.50;;
48941;SDS011;35340;52.378;4.648;2023-01-15T01:29:13;10.25;;;4.00;;
48941;SDS011;35340;52.378;4.648;2023-01-15T01:31:40;8.48;;;3.42;;
48941;SDS011;35340;52.378;4.648;2023-01-15T01:34:05;9.77;;;3.88;;
48941;SDS011;35340;52.378;4.648;2023-01-15T01:36:34;7.60;;;3.40;;
48941;SDS011;35340;52.378;4.648;2023-01-15T01:39:01;8.05;;;3.60;;
48941;SDS011;35340;52.378;4.648;2023-01-15T01:41:28;7.03;;;3.45;;
48941;SDS011;35340;52.378;4.648;2023-01-15T01:43:55;7.97;;;3.20;;
48941;SDS011;35340;52.378;4.648;2023-01-15T01:46:26;8.15;;;3.25;;
48941;SDS011;35340;52.378;4.648;2023-01-15T01:48:54;7.57;;;3.47;;
48941;SDS011;35340;52.378;4.648;2023-01-15T01:51:29;8.93;;;3.65;;
48941;SDS011;35340;52.378;4.648;2023-01-15T01:53:59;5.70;;;3.13;;
48941;SDS011;35340;52.378;4.648;2023-01-15T01:56:26;7.82;;;3.53;;
48941;SDS011;35340;52.378;4.648;2023-01-15T01:58:51;8.35;;;3.60;;
48941;SDS011;35340;52.378;4.648;2023-01-15T02:01:19;7.78;;;3.30;;
48941;SDS011;35340;52.378;4.648;2023-01-15T02:03:46;6.85;;;3.53;;
48941;SDS011;35340;52.378;4.648;2023-01-15T02:06:11;8.32;;;3.50;;
48941;SDS011;35340;52.378;4.648;2023-01-15T02:08:39;10.00;;;2.90;;
48941;SDS011;35340;52.378;4.648;2023-01-15T02:11:05;8.40;;;3.45;;
48941;SDS011;35340;52.378;4.648;2023-01-15T02:13:46;5.88;;;2.92;;
48941;SDS011;35340;52.378;4.648;2023-01-15T02:16:15;6.50;;;2.85;;
48941;SDS011;35340;52.378;4.648;2023-01-15T02:27:00;7.60;;;3.10;;
48941;SDS011;35340;52.378;4.648;2023-01-15T02:29:53;6.70;;;2.72;;
48941;SDS011;35340;52.378;4.648;2023-01-15T02:32:39;6.72;;;2.67;;
48941;SDS011;35340;52.378;4.648;2023-01-15T02:35:30;8.95;;;3.25;;
48941;SDS011;35340;52.378;4.648;2023-01-15T02:38:03;8.38;;;2.78;;
48941;SDS011;35340;52.378;4.648;2023-01-15T02:40:32;8.25;;;2.95;;
48941;SDS011;35340;52.378;4.648;2023-01-15T02:43:00;6.68;;;2.90;;
48941;SDS011;35340;52.378;4.648;2023-01-15T02:45:35;6.88;;;2.80;;
48941;SDS011;35340;52.378;4.648;2023-01-15T02:48:10;8.70;;;3.05;;
48941;SDS011;35340;52.378;4.648;2023-01-15T02:50:43;7.78;;;2.88;;
48941;SDS011;35340;52.378;4.648;2023-01-15T02:53:15;7.60;;;2.75;;
48941;SDS011;35340;52.378;4.648;2023-01-15T02:55:45;7.03;;;2.42;;
48941;SDS011;35340;52.378;4.648;2023-01-15T02:58:19;7.18;;;2.83;;
48941;SDS011;35340;52.378;4.648;2023-01-15T03:00:50;6.68;;;2.58;;
48941;SDS011;35340;52.378;4.648;2023-01-15T03:06:14;7.25;;;2.72;;
48941;SDS011;35340;52.378;4.648;2023-01-15T03:08:45;8.43;;;2.70;;
48941;SDS011;35340;52.378;4.648;2023-01-15T03:11:12;7.80;;;2.72;;
48941;SDS011;35340;52.378;4.648;2023-01-15T03:13:47;5.30;;;2.58;;
48941;SDS011;35340;52.378;4.648;2023-01-15T03:16:27;5.28;;;2.45;;
48941;SDS011;35340;52.378;4.648;2023-01-15T03:19:10;6.82;;;2.92;;
48941;SDS011;35340;52.378;4.648;2023-01-15T03:24:36;8.25;;;2.88;;
48941;SDS011;35340;52.378;4.648;2023-01-15T03:27:06;5.15;;;2.63;;
48941;SDS011;35340;52.378;4.648;2023-01-15T03:29:33;6.85;;;2.47;;
48941;SDS011;35340;52.378;4.648;2023-01-15T03:32:02;6.13;;;2.25;;
48941;SDS011;35340;52.378;4.648;2023-01-15T03:34:50;5.03;;;2.45;;
48941;SDS011;35340;52.378;4.648;2023-01-15T03:37:15;5.35;;;2.17;;
48941;SDS011;35340;52.378;4.648;2023-01-15T03:39:41;8.48;;;2.70;;
48941;SDS011;35340;52.378;4.648;2023-01-15T03:42:10;5.70;;;2.10;;
48941;SDS011;35340;52.378;4.648;2023-01-15T03:48:00;6.38;;;2.58;;
48941;SDS011;35340;52.378;4.648;2023-01-15T03:50:40;6.72;;;2.55;;
48941;SDS011;35340;52.378;4.648;2023-01-15T03:53:27;5.20;;;2.10;;
48941;SDS011;35340;52.378;4.648;2023-01-15T03:56:03;5.13;;;2.10;;
48941;SDS011;35340;52.378;4.648;2023-01-15T03:58:40;6.82;;;2.47;;
48941;SDS011;35340;52.378;4.648;2023-01-15T04:01:09;7.68;;;2.30;;
48941;SDS011;35340;52.378;4.648;2023-01-15T04:03:39;5.03;;;2.45;;
48941;SDS011;35340;52.378;4.648;2023-01-15T04:06:06;8.13;;;2.25;;
48941;SDS011;35340;52.378;4.648;2023-01-15T04:08:35;6.55;;;2.40;;
48941;SDS011;35340;52.378;4.648;2023-01-15T04:11:04;7.07;;;2.33;;
48941;SDS011;35340;52.378;4.648;2023-01-15T04:13:30;4.95;;;2.28;;
48941;SDS011;35340;52.378;4.648;2023-01-15T04:15:55;4.35;;;2.08;;
48941;SDS011;35340;52.378;4.648;2023-01-15T04:18:21;6.85;;;2.05;;
48941;SDS011;35340;52.378;4.648;2023-01-15T04:20:47;5.38;;;2.30;;
48941;SDS011;35340;52.378;4.648;2023-01-15T04:23:13;6.13;;;2.10;;
48941;SDS011;35340;52.378;4.648;2023-01-15T04:25:39;5.53;;;2.10;;
48941;SDS011;35340;52.378;4.648;2023-01-15T04:28:05;5.13;;;2.20;;
48941;SDS011;35340;52.378;4.648;2023-01-15T04:30:31;6.90;;;2.35;;
48941;SDS011;35340;52.378;4.648;2023-01-15T04:32:57;4.38;;;2.10;;
48941;SDS011;35340;52.378;4.648;2023-01-15T04:35:22;5.15;;;1.98;;
48941;SDS011;35340;52.378;4.648;2023-01-15T04:37:48;5.47;;;2.05;;
48941;SDS011;35340;52.378;4.648;2023-01-15T04:40:13;5.90;;;2.00;;
48941;SDS011;35340;52.378;4.648;2023-01-15T04:42:59;4.10;;;1.60;;
48941;SDS011;35340;52.378;4.648;2023-01-15T04:45:44;5.53;;;1.85;;
48941;SDS011;35340;52.378;4.648;2023-01-15T04:48:09;4.40;;;1.80;;
48941;SDS011;35340;52.378;4.648;2023-01-15T04:50:36;7.18;;;2.17;;
48941;SDS011;35340;52.378;4.648;2023-01-15T04:53:02;5.10;;;2.05;;
48941;SDS011;35340;52.378;4.648;2023-01-15T04:55:28;5.97;;;1.85;;
48941;SDS011;35340;52.378;4.648;2023-01-15T04:57:54;5.13;;;2.22;;
48941;SDS011;35340;52.378;4.648;2023-01-15T05:00:19;5.25;;;2.05;;
48941;SDS011;35340;52.378;4.648;2023-01-15T05:02:45;5.05;;;2.00;;
48941;SDS011;35340;52.378;4.648;2023-01-15T05:05:10;5.78;;;2.05;;
48941;SDS011;35340;52.378;4.648;2023-01-15T05:07:36;3.85;;;1.70;;
48941;SDS011;35340;52.378;4.648;2023-01-15T05:10:01;5.28;;;1.65;;
48941;SDS011;35340;52.378;4.648;2023-01-15T05:12:26;6.20;;;2.13;;
48941;SDS011;35340;52.378;4.648;2023-01-15T05:14:52;4.72;;;1.75;;
48941;SDS011;35340;52.378;4.648;2023-01-15T05:17:17;6.35;;;1.90;;
48941;SDS011;35340;52.378;4.648;2023-01-15T05:19:42;5.65;;;1.83;;
48941;SDS011;35340;52.378;4.648;2023-01-15T05:22:08;4.65;;;1.90;;
48941;SDS011;35340;52.378;4.648;2023-01-15T05:24:34;5.82;;;1.83;;
48941;SDS011;35340;52.378;4.648;2023-01-15T05:26:59;4.47;;;1.70;;
48941;SDS011;35340;52.378;4.648;2023-01-15T05:29:24;3.28;;;1.30;;
48941;SDS011;35340;52.378;4.648;2023-01-15T05:31:50;5.65;;;1.60;;
48941;SDS011;35340;52.378;4.648;2023-01-15T05:34:16;4.97;;;1.58;;
48941;SDS011;35340;52.378;4.648;2023-01-15T05:36:41;3.38;;;1.60;;
48941;SDS011;35340;52.378;4.648;2023-01-15T05:39:06;3.63;;;1.48;;
48941;SDS011;35340;52.378;4.648;2023-01-15T05:41:32;3.55;;;1.70;;
48941;SDS011;35340;52.378;4.648;2023-01-15T05:44:13;5.65;;;1.75;;
48941;SDS011;35340;52.378;4.648;2023-01-15T05:46:40;3.95;;;1.48;;
48941;SDS011;35340;52.378;4.648;2023-01-15T05:49:07;5.45;;;1.75;;
48941;SDS011;35340;52.378;4.648;2023-01-15T05:51:35;6.40;;;1.60;;
48941;SDS011;35340;52.378;4.648;2023-01-15T05:54:01;3.15;;;1.40;;
48941;SDS011;35340;52.378;4.648;2023-01-15T05:56:28;4.90;;;1.58;;
48941;SDS011;35340;52.378;4.648;2023-01-15T05:58:53;4.70;;;1.70;;
48941;SDS011;35340;52.378;4.648;2023-01-15T06:01:19;4.18;;;1.55;;
48941;SDS011;35340;52.378;4.648;2023-01-15T06:03:45;3.45;;;1.45;;
48941;SDS011;35340;52.378;4.648;2023-01-15T06:06:12;4.55;;;1.60;;
48941;SDS011;35340;52.378;4.648;2023-01-15T06:08:39;4.05;;;1.50;;
48941;SDS011;35340;52.378;4.648;2023-01-15T06:11:05;3.47;;;1.38;;
48941;SDS011;35340;52.378;4.648;2023-01-15T06:13:31;3.10;;;1.33;;
48941;SDS011;35340;52.378;4.648;2023-01-15T06:15:57;2.88;;;1.27;;
48941;SDS011;35340;52.378;4.648;2023-01-15T06:18:23;3.47;;;1.33;;
48941;SDS011;35340;52.378;4.648;2023-01-15T06:20:49;3.53;;;1.40;;
48941;SDS011;35340;52.378;4.648;2023-01-15T06:23:15;3.47;;;1.20;;
48941;SDS011;35340;52.378;4.648;2023-01-15T06:25:41;4.38;;;1.55;;
48941;SDS011;35340;52.378;4.648;2023-01-15T06:28:07;3.63;;;1.10;;
48941;SDS011;35340;52.378;4.648;2023-01-15T06:30:32;4.10;;;1.33;;
48941;SDS011;35340;52.378;4.648;2023-01-15T06:32:59;3.05;;;1.30;;
48941;SDS011;35340;52.378;4.648;2023-01-15T06:35:25;4.18;;;1.50;;
48941;SDS011;35340;52.378;4.648;2023-01-15T06:37:51;4.07;;;1.48;;
48941;SDS011;35340;52.378;4.648;2023-01-15T06:40:16;3.22;;;1.40;;
48941;SDS011;35340;52.378;4.648;2023-01-15T06:42:42;3.88;;;1.50;;
48941;SDS011;35340;52.378;4.648;2023-01-15T06:45:26;5.13;;;1.52;;
48941;SDS011;35340;52.378;4.648;2023-01-15T06:48:12;3.40;;;1.30;;
48941;SDS011;35340;52.378;4.648;2023-01-15T06:50:37;4.32;;;1.45;;
48941;SDS011;35340;52.378;4.648;2023-01-15T06:53:02;3.60;;;1.48;;
48941;SDS011;35340;52.378;4.648;2023-01-15T06:55:28;3.58;;;1.40;;
48941;SDS011;35340;52.378;4.648;2023-01-15T06:57:53;4.53;;;1.52;;
48941;SDS011;35340;52.378;4.648;2023-01-15T07:00:19;3.33;;;1.40;;
48941;SDS011;35340;52.378;4.648;2023-01-15T07:02:44;3.05;;;1.30;;
48941;SDS011;35340;52.378;4.648;2023-01-15T07:05:10;2.70;;;1.10;;
48941;SDS011;35340;52.378;4.648;2023-01-15T07:07:35;2.75;;;1.10;;
48941;SDS011;35340;52.378;4.648;2023-01-15T07:10:01;4.05;;;1.50;;
48941;SDS011;35340;52.378;4.648;2023-01-15T07:12:27;2.63;;;1.20;;
48941;SDS011;35340;52.378;4.648;2023-01-15T07:14:52;3.35;;;1.27;;
48941;SDS011;35340;52.378;4.648;2023-01-15T07:17:17;3.22;;;1.25;;
48941;SDS011;35340;52.378;4.648;2023-01-15T07:19:43;3.72;;;1.30;;
48941;SDS011;35340;52.378;4.648;2023-01-15T07:22:09;3.30;;;1.27;;
48941;SDS011;35340;52.378;4.648;2023-01-15T07:24:35;3.30;;;1.23;;
48941;SDS011;35340;52.378;4.648;2023-01-15T07:27:00;3.78;;;1.27;;
48941;SDS011;35340;52.378;4.648;2023-01-15T07:29:26;5.07;;;1.45;;
48941;SDS011;35340;52.378;4.648;2023-01-15T07:31:52;4.25;;;1.33;;
48941;SDS011;35340;52.378;4.648;2023-01-15T07:34:18;3.05;;;1.25;;
48941;SDS011;35340;52.378;4.648;2023-01-15T07:36:44;2.65;;;1.00;;
48941;SDS011;35340;52.378;4.648;2023-01-15T07:39:10;3.90;;;1.30;;
48941;SDS011;35340;52.378;4.648;2023-01-15T07:41:36;4.47;;;1.38;;
48941;SDS011;35340;52.378;4.648;2023-01-15T07:44:21;3.40;;;1.30;;
48941;SDS011;35340;52.378;4.648;2023-01-15T07:47:24;3.65;;;1.27;;
48941;SDS011;35340;52.378;4.648;2023-01-15T07:50:11;3.63;;;1.10;;
48941;SDS011;35340;52.378;4.648;2023-01-15T07:52:38;2.92;;;1.20;;
48941;SDS011;35340;52.378;4.648;2023-01-15T07:55:03;3.80;;;1.00;;
48941;SDS011;35340;52.378;4.648;2023-01-15T07:57:29;3.30;;;1.17;;
48941;SDS011;35340;52.378;4.648;2023-01-15T07:59:55;3.92;;;1.50;;
48941;SDS011;35340;52.378;4.648;2023-01-15T08:02:20;4.85;;;1.38;;
48941;SDS011;35340;52.378;4.648;2023-01-15T08:04:45;3.35;;;1.10;;
48941;SDS011;35340;52.378;4.648;2023-01-15T08:07:12;3.28;;;1.10;;
48941;SDS011;35340;52.378;4.648;2023-01-15T08:09:39;1.83;;;1.00;;
48941;SDS011;35340;52.378;4.648;2023-01-15T08:12:05;4.63;;;1.40;;
48941;SDS011;35340;52.378;4.648;2023-01-15T08:14:49;2.95;;;1.20;;
48941;SDS011;35340;52.378;4.648;2023-01-15T08:19:59;3.60;;;1.17;;
48941;SDS011;35340;52.378;4.648;2023-01-15T08:22:25;2.75;;;1.00;;
48941;SDS011;35340;52.378;4.648;2023-01-15T08:24:50;3.05;;;1.20;;
48941;SDS011;35340;52.378;4.648;2023-01-15T08:27:15;3.35;;;1.40;;
48941;SDS011;35340;52.378;4.648;2023-01-15T08:29:41;3.53;;;1.17;;
48941;SDS011;35340;52.378;4.648;2023-01-15T08:32:06;3.45;;;1.02;;
48941;SDS011;35340;52.378;4.648;2023-01-15T08:34:32;3.65;;;1.30;;
48941;SDS011;35340;52.378;4.648;2023-01-15T08:36:58;5.68;;;1.30;;
48941;SDS011;35340;52.378;4.648;2023-01-15T08:39:26;3.83;;;1.40;;
48941;SDS011;35340;52.378;4.648;2023-01-15T08:41:52;2.92;;;1.13;;
48941;SDS011;35340;52.378;4.648;2023-01-15T08:44:18;3.33;;;1.20;;
48941;SDS011;35340;52.378;4.648;2023-01-15T08:46:45;3.38;;;1.30;;
48941;SDS011;35340;52.378;4.648;2023-01-15T08:49:11;3.78;;;1.20;;
48941;SDS011;35340;52.378;4.648;2023-01-15T08:51:37;2.95;;;1.10;;
48941;SDS011;35340;52.378;4.648;2023-01-15T08:54:02;4.35;;;1.20;;
48941;SDS011;35340;52.378;4.648;2023-01-15T08:56:28;4.28;;;1.20;;
48941;SDS011;35340;52.378;4.648;2023-01-15T08:58:53;2.85;;;1.05;;
48941;SDS011;35340;52.378;4.648;2023-01-15T09:01:19;4.43;;;1.42;;
48941;SDS011;35340;52.378;4.648;2023-01-15T09:03:44;2.40;;;1.05;;
48941;SDS011;35340;52.378;4.648;2023-01-15T09:06:09;2.97;;;1.38;;
48941;SDS011;35340;52.378;4.648;2023-01-15T09:08:35;3.53;;;1.38;;
48941;SDS011;35340;52.378;4.648;2023-01-15T09:11:02;3.65;;;1.10;;
48941;SDS011;35340;52.378;4.648;2023-01-15T09:13:29;6.45;;;1.48;;
48941;SDS011;35340;52.378;4.648;2023-01-15T09:15:58;4.82;;;1.33;;
48941;SDS011;35340;52.378;4.648;2023-01-15T09:18:24;2.63;;;1.05;;
48941;SDS011;35340;52.378;4.648;2023-01-15T09:20:50;4.68;;;1.20;;
48941;SDS011;35340;52.378;4.648;2023-01-15T09:23:15;4.88;;;1.35;;
48941;SDS011;35340;52.378;4.648;2023-01-15T09:25:49;3.17;;;1.10;;
48941;SDS011;35340;52.378;4.648;2023-01-15T09:28:18;2.58;;;1.17;;
48941;SDS011;35340;52.378;4.648;2023-01-15T09:30:44;4.10;;;1.20;;
48941;SDS011;35340;52.378;4.648;2023-01-15T09:33:09;3.35;;;1.13;;
48941;SDS011;35340;52.378;4.648;2023-01-15T09:35:35;3.63;;;1.35;;
48941;SDS011;35340;52.378;4.648;2023-01-15T09:38:01;3.42;;;1.10;;
48941;SDS011;35340;52.378;4.648;2023-01-15T09:46:13;4.32;;;1.30;;
48941;SDS011;35340;52.378;4.648;2023-01-15T09:53:49;3.17;;;1.30;;
48941;SDS011;35340;52.378;4.648;2023-01-15T09:56:21;3.95;;;1.33;;
48941;SDS011;35340;52.378;4.648;2023-01-15T09:58:49;4.55;;;1.48;;
48941;SDS011;35340;52.378;4.648;2023-01-15T10:01:17;4.38;;;1.30;;
48941;SDS011;35340;52.378;4.648;2023-01-15T10:03:50;6.40;;;1.63;;
48941;SDS011;35340;52.378;4.648;2023-01-15T10:06:24;5.20;;;1.10;;
48941;SDS011;35340;52.378;4.648;2023-01-15T10:09:03;6.32;;;1.45;;
48941;SDS011;35340;52.378;4.648;2023-01-15T10:11:34;6.82;;;1.75;;
48941;SDS011;35340;52.378;4.648;2023-01-15T10:14:31;7.63;;;1.85;;
48941;SDS011;35340;52.378;4.648;2023-01-15T10:17:03;7.20;;;1.85;;
48941;SDS011;35340;52.378;4.648;2023-01-15T10:19:38;10.32;;;2.00;;
48941;SDS011;35340;52.378;4.648;2023-01-15T10:22:06;9.20;;;1.75;;
48941;SDS011;35340;52.378;4.648;2023-01-15T10:24:41;12.55;;;1.92;;
48941;SDS011;35340;52.378;4.648;2023-01-15T10:27:19;7.38;;;1.77;;
48941;SDS011;35340;52.378;4.648;2023-01-15T10:29:48;6.43;;;1.70;;
48941;SDS011;35340;52.378;4.648;2023-01-15T10:32:24;5.90;;;1.60;;
48941;SDS011;35340;52.378;4.648;2023-01-15T10:35:10;5.72;;;1.67;;
48941;SDS011;35340;52.378;4.648;2023-01-15T10:46:00;6.32;;;1.60;;
48941;SDS011;35340;52.378;4.648;2023-01-15T10:48:38;5.57;;;1.60;;
48941;SDS011;35340;52.378;4.648;2023-01-15T10:59:03;6.13;;;1.70;;
48941;SDS011;35340;52.378;4.648;2023-01-15T11:01:39;7.00;;;1.75;;
48941;SDS011;35340;52.378;4.648;2023-01-15T11:04:07;5.00;;;1.60;;
48941;SDS011;35340;52.378;4.648;2023-01-15T11:06:34;6.70;;;1.67;;
48941;SDS011;35340;52.378;4.648;2023-01-15T11:08:59;7.82;;;1.90;;
48941;SDS011;35340;52.378;4.648;2023-01-15T11:11:30;5.85;;;1.70;;
48941;SDS011;35340;52.378;4.648;2023-01-15T11:14:17;7.03;;;2.08;;
48941;SDS011;35340;52.378;4.648;2023-01-15T11:19:36;6.43;;;1.92;;
48941;SDS011;35340;52.378;4.648;2023-01-15T11:22:22;4.93;;;1.75;;
48941;SDS011;35340;52.378;4.648;2023-01-15T11:24:51;7.45;;;1.70;;
48941;SDS011;35340;52.378;4.648;2023-01-15T11:27:23;5.93;;;2.03;;
48941;SDS011;35340;52.378;4.648;2023-01-15T11:29:58;6.30;;;1.70;;
48941;SDS011;35340;52.378;4.648;2023-01-15T11:32:30;5.07;;;1.65;;
48941;SDS011;35340;52.378;4.648;2023-01-15T11:35:01;9.25;;;2.55;;
48941;SDS011;35340;52.378;4.648;2023-01-15T11:37:37;9.93;;;2.22;;
48941;SDS011;35340;52.378;4.648;2023-01-15T11:40:03;7.03;;;2.17;;
48941;SDS011;35340;52.378;4.648;2023-01-15T11:42:32;8.13;;;2.22;;
48941;SDS011;35340;52.378;4.648;2023-01-15T11:45:19;7.60;;;2.13;;
48941;SDS011;35340;52.378;4.648;2023-01-15T11:48:21;10.13;;;2.55;;
48941;SDS011;35340;52.378;4.648;2023-01-15T11:51:10;7.38;;;2.20;;
48941;SDS011;35340;52.378;4.648;2023-01-15T11:53:52;5.55;;;1.80;;
48941;SDS011;35340;52.378;4.648;2023-01-15T11:56:23;7.90;;;2.30;;
48941;SDS011;35340;52.378;4.648;2023-01-15T11:58:53;7.57;;;2.00;;
48941;SDS011;35340;52.378;4.648;2023-01-15T12:01:23;7.15;;;2.13;;
48941;SDS011;35340;52.378;4.648;2023-01-15T12:03:56;6.68;;;1.98;;
48941;SDS011;35340;52.378;4.648;2023-01-15T12:06:24;6.15;;;1.98;;
48941;SDS011;35340;52.378;4.648;2023-01-15T12:31:04;4.45;;;1.63;;
48941;SDS011;35340;52.378;4.648;2023-01-15T12:39:00;4.65;;;1.73;;
48941;SDS011;35340;52.378;4.648;2023-01-15T12:41:35;34.50;;;19.95;;
48941;SDS011;35340;52.378;4.648;2023-01-15T12:44:36;81.47;;;55.10;;
48941;SDS011;35340;52.378;4.648;2023-01-15T12:50:14;93.97;;;63.67;;
48941;SDS011;35340;52.378;4.648;2023-01-15T12:52:53;95.45;;;65.05;;
48941;SDS011;35340;52.378;4.648;2023-01-15T12:55:28;94.82;;;65.72;;
48941;SDS011;35340;52.378;4.648;2023-01-15T12:57:59;89.93;;;63.55;;
48941;SDS011;35340;52.378;4.648;2023-01-15T13:05:42;83.78;;;58.15;;
48941;SDS011;35340;52.378;4.648;2023-01-15T13:10:54;77.50;;;54.55;;
48941;SDS011;35340;52.378;4.648;2023-01-15T13:13:24;74.88;;;52.67;;
48941;SDS011;35340;52.378;4.648;2023-01-15T13:20:57;68.88;;;49.08;;
48941;SDS011;35340;52.378;4.648;2023-01-15T13:23:35;67.53;;;46.88;;
48941;SDS011;35340;52.378;4.648;2023-01-15T13:31:55;57.17;;;37.13;;
48941;SDS011;35340;52.378;4.648;2023-01-15T13:34:33;54.35;;;37.15;;
48941;SDS011;35340;52.378;4.648;2023-01-15T13:39:57;54.33;;;34.83;;
48941;SDS011;35340;52.378;4.648;2023-01-15T13:42:27;48.40;;;32.80;;
48941;SDS011;35340;52.378;4.648;2023-01-15T13:44:56;53.97;;;32.95;;
48941;SDS011;35340;52.378;4.648;2023-01-15T13:47:29;43.55;;;30.77;;
48941;SDS011;35340;52.378;4.648;2023-01-15T13:52:29;44.50;;;28.63;;
48941;SDS011;35340;52.378;4.648;2023-01-15T13:55:00;47.60;;;30.17;;
48941;SDS011;35340;52.378;4.648;2023-01-15T13:57:50;43.60;;;27.23;;
48941;SDS011;35340;52.378;4.648;2023-01-15T14:00:29;40.00;;;27.52;;
48941;SDS011;35340;52.378;4.648;2023-01-15T14:02:56;40.55;;;27.27;;
48941;SDS011;35340;52.378;4.648;2023-01-15T14:05:28;37.83;;;25.73;;
48941;SDS011;35340;52.378;4.648;2023-01-15T14:07:54;38.22;;;24.90;;
48941;SDS011;35340;52.378;4.648;2023-01-15T14:10:23;34.25;;;25.05;;
48941;SDS011;35340;52.378;4.648;2023-01-15T14:12:54;33.30;;;24.15;;
48941;SDS011;35340;52.378;4.648;2023-01-15T14:28:58;28.88;;;20.15;;
48941;SDS011;35340;52.378;4.648;2023-01-15T14:34:03;28.02;;;19.20;;
48941;SDS011;35340;52.378;4.648;2023-01-15T14:39:23;26.02;;;18.02;;
48941;SDS011;35340;52.378;4.648;2023-01-15T14:41:56;25.42;;;17.60;;
48941;SDS011;35340;52.378;4.648;2023-01-15T14:44:43;24.73;;;17.33;;
48941;SDS011;35340;52.378;4.648;2023-01-15T14:47:16;23.83;;;17.17;;
48941;SDS011;35340;52.378;4.648;2023-01-15T14:49:57;22.67;;;16.83;;
48941;SDS011;35340;52.378;4.648;2023-01-15T14:52:24;23.30;;;16.30;;
48941;SDS011;35340;52.378;4.648;2023-01-15T14:54:50;20.60;;;15.60;;
48941;SDS011;35340;52.378;4.648;2023-01-15T14:57:17;25.77;;;15.75;;
48941;SDS011;35340;52.378;4.648;2023-01-15T14:59:48;23.73;;;15.80;;
48941;SDS011;35340;52.378;4.648;2023-01-15T15:02:35;22.85;;;15.30;;
48941;SDS011;35340;52.378;4.648;2023-01-15T15:05:04;20.63;;;14.40;;
48941;SDS011;35340;52.378;4.648;2023-01-15T15:07:41;21.07;;;14.63;;
48941;SDS011;35340;52.378;4.648;2023-01-15T15:10:13;20.23;;;14.07;;
48941;SDS011;35340;52.378;4.648;2023-01-15T15:13:21;16.77;;;12.60;;
48941;SDS011;35340;52.378;4.648;2023-01-15T15:16:00;21.05;;;13.23;;
48941;SDS011;35340;52.378;4.648;2023-01-15T15:19:15;17.25;;;12.73;;
48941;SDS011;35340;52.378;4.648;2023-01-15T15:21:36;17.58;;;12.55;;
48941;SDS011;35340;52.378;4.648;2023-01-15T15:24:06;15.57;;;11.43;;
48941;SDS011;35340;52.378;4.648;2023-01-15T15:26:42;16.33;;;12.23;;
48941;SDS011;35340;52.378;4.648;2023-01-15T15:31:38;16.35;;;11.52;;
48941;SDS011;35340;52.378;4.648;2023-01-15T15:34:10;16.05;;;10.77;;
48941;SDS011;35340;52.378;4.648;2023-01-15T15:36:41;16.45;;;11.38;;
48941;SDS011;35340;52.378;4.648;2023-01-15T15:39:20;14.63;;;10.25;;
48941;SDS011;35340;52.378;4.648;2023-01-15T15:41:48;16.45;;;10.75;;
48941;SDS011;35340;52.378;4.648;2023-01-15T15:44:46;14.80;;;10.23;;
48941;SDS011;35340;52.378;4.648;2023-01-15T15:47:36;14.68;;;10.15;;
48941;SDS011;35340;52.378;4.648;2023-01-15T15:50:29;14.98;;;9.93;;
48941;SDS011;35340;52.378;4.648;2023-01-15T15:52:57;12.10;;;9.07;;
48941;SDS011;35340;52.378;4.648;2023-01-15T15:55:24;13.43;;;9.73;;
48941;SDS011;35340;52.378;4.648;2023-01-15T15:57:55;12.80;;;8.80;;
48941;SDS011;35340;52.378;4.648;2023-01-15T16:00:29;12.18;;;8.57;;
48941;SDS011;35340;52.378;4.648;2023-01-15T16:02:58;12.80;;;8.93;;
48941;SDS011;35340;52.378;4.648;2023-01-15T16:05:29;12.77;;;8.75;;
48941;SDS011;35340;52.378;4.648;2023-01-15T16:08:06;13.50;;;8.40;;
48941;SDS011;35340;52.378;4.648;2023-01-15T16:10:42;11.35;;;7.90;;
48941;SDS011;35340;52.378;4.648;2023-01-15T16:13:12;11.10;;;8.00;;
48941;SDS011;35340;52.378;4.648;2023-01-15T16:15:46;10.80;;;7.47;;
48941;SDS011;35340;52.378;4.648;2023-01-15T16:18:19;11.05;;;7.80;;
48941;SDS011;35340;52.378;4.648;2023-01-15T16:20:50;9.98;;;7.20;;
48941;SDS011;35340;52.378;4.648;2023-01-15T16:23:23;9.45;;;7.40;;
48941;SDS011;35340;52.378;4.648;2023-01-15T16:28:46;9.57;;;6.82;;
48941;SDS011;35340;52.378;4.648;2023-01-15T16:31:18;10.73;;;6.68;;
48941;SDS011;35340;52.378;4.648;2023-01-15T16:33:45;8.82;;;6.65;;
48941;SDS011;35340;52.378;4.648;2023-01-15T16:36:11;11.45;;;6.95;;
48941;SDS011;35340;52.378;4.648;2023-01-15T16:38:40;10.07;;;6.80;;
48941;SDS011;35340;52.378;4.648;2023-01-15T16:41:18;9.80;;;6.32;;
48941;SDS011;35340;52.378;4.648;2023-01-15T16:44:00;8.90;;;6.28;;
48941;SDS011;35340;52.378;4.648;2023-01-15T16:46:29;11.07;;;6.45;;
48941;SDS011;35340;52.378;4.648;2023-01-15T16:51:47;8.27;;;5.53;;
48941;SDS011;35340;52.378;4.648;2023-01-15T16:54:47;10.18;;;6.13;;
48941;SDS011;35340;52.378;4.648;2023-01-15T16:57:24;8.43;;;5.60;;
48941;SDS011;35340;52.378;4.648;2023-01-15T16:59:56;8.63;;;5.63;;
48941;SDS011;35340;52.378;4.648;2023-01-15T17:02:24;7.50;;;5.22;;
48941;SDS011;35340;52.378;4.648;2023-01-15T17:04:53;7.53;;;5.03;;
48941;SDS011;35340;52.378;4.648;2023-01-15T17:07:27;7.88;;;5.38;;
48941;SDS011;35340;52.378;4.648;2023-01-15T17:09:59;8.07;;;5.18;;
48941;SDS011;35340;52.378;4.648;2023-01-15T17:12:31;6.22;;;4.38;;
48941;SDS011;35340;52.378;4.648;2023-01-15T17:17:44;6.93;;;4.75;;